sensor_id;sensor_type;location;lat;lon;timestamp;pressure;altitude;pressure_sealevel;temperature;humidity
41830;BME280;38614;43.472;23.936;2022-07-25T00:01:02;100061.06;;;23.43;nan
41830;BME280;38614;43.472;23.936;2022-07-25T00:03:50;100062.91;;;23.50;nan
41830;BME280;38614;43.472;23.936;2022-07-25T00:09:25;100065.13;;;23.42;nan
41830;BME280;38614;43.472;23.936;2022-07-25T00:12:13;100029.94;;;23.34;nan
41830;BME280;38614;43.472;23.936;2022-07-25T00:15:01;100010.66;;;23.20;nan
41830;BME280;38614;43.472;23.936;2022-07-25T00:17:48;100040.53;;;23.30;nan
41830;BME280;38614;43.472;23.936;2022-07-25T00:20:36;99997.41;;;23.04;nan
41830;BME280;38614;43.472;23.936;2022-07-25T00:23:24;100025.09;;;23.35;nan
41830;BME280;38614;43.472;23.936;2022-07-25T00:26:12;100024.09;;;23.28;nan
41830;BME280;38614;43.472;23.936;2022-07-25T00:29:00;100034.00;;;23.20;nan
41830;BME280;38614;43.472;23.936;2022-07-25T00:31:48;100022.47;;;23.15;nan
41830;BME280;38614;43.472;23.936;2022-07-25T00:34:36;100018.38;;;23.03;nan
41830;BME280;38614;43.472;23.936;2022-07-25T00:37:24;100014.53;;;22.97;nan
41830;BME280;38614;43.472;23.936;2022-07-25T00:40:11;100028.28;;;22.95;nan
41830;BME280;38614;43.472;23.936;2022-07-25T00:42:59;100035.03;;;22.97;nan
41830;BME280;38614;43.472;23.936;2022-07-25T00:45:49;100025.91;;;22.93;nan
41830;BME280;38614;43.472;23.936;2022-07-25T00:48:37;100014.50;;;22.84;nan
41830;BME280;38614;43.472;23.936;2022-07-25T00:51:28;100014.22;;;22.79;nan
41830;BME280;38614;43.472;23.936;2022-07-25T00:54:17;100025.50;;;22.79;nan
41830;BME280;38614;43.472;23.936;2022-07-25T00:57:07;100018.38;;;22.74;nan
41830;BME280;38614;43.472;23.936;2022-07-25T00:59:55;100007.31;;;22.67;nan
41830;BME280;38614;43.472;23.936;2022-07-25T01:02:43;100006.28;;;22.61;nan
41830;BME280;38614;43.472;23.936;2022-07-25T01:05:31;100007.78;;;22.65;nan
41830;BME280;38614;43.472;23.936;2022-07-25T01:08:20;99997.81;;;22.61;nan
41830;BME280;38614;43.472;23.936;2022-07-25T01:11:08;99981.34;;;22.46;nan
41830;BME280;38614;43.472;23.936;2022-07-25T01:13:56;99989.22;;;22.52;nan
41830;BME280;38614;43.472;23.936;2022-07-25T01:22:18;99994.38;;;22.40;nan
41830;BME280;38614;43.472;23.936;2022-07-25T01:25:06;99990.75;;;22.40;nan
41830;BME280;38614;43.472;23.936;2022-07-25T01:27:54;99984.09;;;22.34;nan
41830;BME280;38614;43.472;23.936;2022-07-25T01:30:42;99974.97;;;22.30;nan
41830;BME280;38614;43.472;23.936;2022-07-25T01:33:30;99981.72;;;22.32;nan
41830;BME280;38614;43.472;23.936;2022-07-25T01:36:18;99953.53;;;22.19;nan
41830;BME280;38614;43.472;23.936;2022-07-25T01:39:05;99974.50;;;22.31;nan
41830;BME280;38614;43.472;23.936;2022-07-25T01:41:53;99977.88;;;22.26;nan
41830;BME280;38614;43.472;23.936;2022-07-25T01:44:40;99983.13;;;22.24;nan
41830;BME280;38614;43.472;23.936;2022-07-25T01:47:28;99973.66;;;22.18;nan
41830;BME280;38614;43.472;23.936;2022-07-25T01:53:03;99959.41;;;21.92;nan
41830;BME280;38614;43.472;23.936;2022-07-25T01:55:53;99940.53;;;21.77;nan
41830;BME280;38614;43.472;23.936;2022-07-25T01:58:44;99982.28;;;21.95;nan
41830;BME280;38614;43.472;23.936;2022-07-25T02:01:51;99954.97;;;21.79;nan
41830;BME280;38614;43.472;23.936;2022-07-25T02:04:49;99944.84;;;21.65;nan
41830;BME280;38614;43.472;23.936;2022-07-25T02:07:37;99991.69;;;21.88;nan
41830;BME280;38614;43.472;23.936;2022-07-25T02:10:25;99976.75;;;21.75;nan
41830;BME280;38614;43.472;23.936;2022-07-25T02:13:12;99991.44;;;21.82;nan
41830;BME280;38614;43.472;23.936;2022-07-25T02:16:00;99987.38;;;21.83;nan
41830;BME280;38614;43.472;23.936;2022-07-25T02:21:35;99956.25;;;21.58;nan
41830;BME280;38614;43.472;23.936;2022-07-25T02:24:23;99988.09;;;21.87;nan
41830;BME280;38614;43.472;23.936;2022-07-25T02:27:10;99976.06;;;21.71;nan
41830;BME280;38614;43.472;23.936;2022-07-25T02:29:58;100013.31;;;21.75;nan
41830;BME280;38614;43.472;23.936;2022-07-25T02:35:34;99991.94;;;21.77;nan
41830;BME280;38614;43.472;23.936;2022-07-25T02:41:09;99995.31;;;21.88;nan
41830;BME280;38614;43.472;23.936;2022-07-25T02:43:57;99980.00;;;21.73;nan
41830;BME280;38614;43.472;23.936;2022-07-25T02:46:45;99982.81;;;21.57;nan
41830;BME280;38614;43.472;23.936;2022-07-25T02:49:33;99998.38;;;21.61;nan
41830;BME280;38614;43.472;23.936;2022-07-25T02:52:20;99974.63;;;21.46;nan
41830;BME280;38614;43.472;23.936;2022-07-25T02:55:09;100001.34;;;21.54;nan
41830;BME280;38614;43.472;23.936;2022-07-25T02:57:57;99983.22;;;21.39;nan
41830;BME280;38614;43.472;23.936;2022-07-25T03:03:32;99957.88;;;21.23;nan
41830;BME280;38614;43.472;23.936;2022-07-25T03:06:20;100002.66;;;21.50;nan
41830;BME280;38614;43.472;23.936;2022-07-25T03:09:10;99989.63;;;21.40;nan
41830;BME280;38614;43.472;23.936;2022-07-25T03:11:57;99977.34;;;21.33;nan
41830;BME280;38614;43.472;23.936;2022-07-25T03:14:45;99971.50;;;21.24;nan
41830;BME280;38614;43.472;23.936;2022-07-25T03:17:32;100003.63;;;21.43;nan
41830;BME280;38614;43.472;23.936;2022-07-25T03:20:20;100009.53;;;21.29;nan
41830;BME280;38614;43.472;23.936;2022-07-25T03:23:08;99987.63;;;21.20;nan
41830;BME280;38614;43.472;23.936;2022-07-25T03:25:56;99997.56;;;21.25;nan
41830;BME280;38614;43.472;23.936;2022-07-25T03:28:44;99963.97;;;21.01;nan
41830;BME280;38614;43.472;23.936;2022-07-25T03:31:32;99986.19;;;21.12;nan
41830;BME280;38614;43.472;23.936;2022-07-25T03:37:07;100017.19;;;21.28;nan
41830;BME280;38614;43.472;23.936;2022-07-25T03:39:55;100011.56;;;21.28;nan
41830;BME280;38614;43.472;23.936;2022-07-25T03:42:43;99996.06;;;21.20;nan
41830;BME280;38614;43.472;23.936;2022-07-25T03:45:30;99993.25;;;21.20;nan
41830;BME280;38614;43.472;23.936;2022-07-25T03:48:18;99995.06;;;21.11;nan
41830;BME280;38614;43.472;23.936;2022-07-25T03:51:06;100008.41;;;21.26;nan
41830;BME280;38614;43.472;23.936;2022-07-25T03:53:53;99997.28;;;21.19;nan
41830;BME280;38614;43.472;23.936;2022-07-25T03:59:44;99996.34;;;21.26;nan
41830;BME280;38614;43.472;23.936;2022-07-25T04:02:32;99991.44;;;21.30;nan
41830;BME280;38614;43.472;23.936;2022-07-25T04:16:32;100014.94;;;21.40;nan
41830;BME280;38614;43.472;23.936;2022-07-25T04:19:20;100012.31;;;21.49;nan
41830;BME280;38614;43.472;23.936;2022-07-25T04:22:10;99960.97;;;21.28;nan
41830;BME280;38614;43.472;23.936;2022-07-25T04:24:58;100004.78;;;21.62;nan
41830;BME280;38614;43.472;23.936;2022-07-25T04:30:33;99998.47;;;21.74;nan
41830;BME280;38614;43.472;23.936;2022-07-25T04:33:21;100012.69;;;21.83;nan
41830;BME280;38614;43.472;23.936;2022-07-25T04:36:09;100022.19;;;21.89;nan
41830;BME280;38614;43.472;23.936;2022-07-25T04:38:57;100013.94;;;21.82;nan
41830;BME280;38614;43.472;23.936;2022-07-25T04:41:44;100016.81;;;21.95;nan
41830;BME280;38614;43.472;23.936;2022-07-25T04:44:32;100038.03;;;22.00;nan
41830;BME280;38614;43.472;23.936;2022-07-25T04:47:20;100035.66;;;22.31;nan
41830;BME280;38614;43.472;23.936;2022-07-25T04:52:55;100026.50;;;22.27;nan
41830;BME280;38614;43.472;23.936;2022-07-25T04:55:45;100009.06;;;22.32;nan
41830;BME280;38614;43.472;23.936;2022-07-25T04:58:33;100034.53;;;22.57;nan
41830;BME280;38614;43.472;23.936;2022-07-25T05:01:21;100042.06;;;22.76;nan
41830;BME280;38614;43.472;23.936;2022-07-25T05:04:11;100038.44;;;22.92;nan
41830;BME280;38614;43.472;23.936;2022-07-25T05:06:59;100017.50;;;22.77;nan
41830;BME280;38614;43.472;23.936;2022-07-25T05:12:34;100056.09;;;23.22;nan
41830;BME280;38614;43.472;23.936;2022-07-25T05:15:22;100054.31;;;23.41;nan
41830;BME280;38614;43.472;23.936;2022-07-25T05:18:13;100028.06;;;23.56;nan
41830;BME280;38614;43.472;23.936;2022-07-25T05:21:01;99997.56;;;23.51;nan
41830;BME280;38614;43.472;23.936;2022-07-25T05:23:49;100062.38;;;23.93;nan
41830;BME280;38614;43.472;23.936;2022-07-25T05:26:37;100019.25;;;23.80;nan
41830;BME280;38614;43.472;23.936;2022-07-25T05:29:24;100047.78;;;24.20;nan
41830;BME280;38614;43.472;23.936;2022-07-25T05:32:13;100031.63;;;24.21;nan
41830;BME280;38614;43.472;23.936;2022-07-25T05:35:01;100052.34;;;24.52;nan
41830;BME280;38614;43.472;23.936;2022-07-25T05:37:48;100058.22;;;24.45;nan
41830;BME280;38614;43.472;23.936;2022-07-25T05:40:36;100052.56;;;24.58;nan
41830;BME280;38614;43.472;23.936;2022-07-25T05:43:24;100058.31;;;24.89;nan
41830;BME280;38614;43.472;23.936;2022-07-25T05:46:12;100051.06;;;24.88;nan
41830;BME280;38614;43.472;23.936;2022-07-25T05:49:00;100064.81;;;24.98;nan
41830;BME280;38614;43.472;23.936;2022-07-25T05:51:47;100067.00;;;24.94;nan
41830;BME280;38614;43.472;23.936;2022-07-25T05:54:35;100075.59;;;25.35;nan
41830;BME280;38614;43.472;23.936;2022-07-25T05:57:23;100067.00;;;25.69;nan
41830;BME280;38614;43.472;23.936;2022-07-25T06:00:11;100068.44;;;25.74;nan
41830;BME280;38614;43.472;23.936;2022-07-25T06:02:59;100079.06;;;25.92;nan
41830;BME280;38614;43.472;23.936;2022-07-25T06:05:47;100082.63;;;25.83;nan
41830;BME280;38614;43.472;23.936;2022-07-25T06:08:36;100081.94;;;26.10;nan
41830;BME280;38614;43.472;23.936;2022-07-25T06:11:24;100084.00;;;26.19;nan
41830;BME280;38614;43.472;23.936;2022-07-25T06:14:15;100056.47;;;26.19;nan
41830;BME280;38614;43.472;23.936;2022-07-25T06:17:04;100086.00;;;26.58;nan
41830;BME280;38614;43.472;23.936;2022-07-25T06:19:52;100069.81;;;27.05;nan
41830;BME280;38614;43.472;23.936;2022-07-25T06:22:39;100075.09;;;27.48;nan
41830;BME280;38614;43.472;23.936;2022-07-25T06:28:15;100084.94;;;27.20;nan
41830;BME280;38614;43.472;23.936;2022-07-25T06:31:04;100099.84;;;27.48;nan
41830;BME280;38614;43.472;23.936;2022-07-25T06:33:52;100084.94;;;27.80;nan
41830;BME280;38614;43.472;23.936;2022-07-25T06:36:40;100079.22;;;27.90;nan
41830;BME280;38614;43.472;23.936;2022-07-25T06:42:15;100087.91;;;27.86;nan
41830;BME280;38614;43.472;23.936;2022-07-25T06:47:53;100086.66;;;28.20;nan
41830;BME280;38614;43.472;23.936;2022-07-25T06:50:42;100089.66;;;28.17;nan
41830;BME280;38614;43.472;23.936;2022-07-25T06:53:30;100053.00;;;28.19;nan
41830;BME280;38614;43.472;23.936;2022-07-25T06:56:17;100066.50;;;28.57;nan
41830;BME280;38614;43.472;23.936;2022-07-25T06:59:05;100074.31;;;28.71;nan
41830;BME280;38614;43.472;23.936;2022-07-25T07:01:53;100053.50;;;28.65;nan
41830;BME280;38614;43.472;23.936;2022-07-25T07:04:41;100082.06;;;28.71;nan
41830;BME280;38614;43.472;23.936;2022-07-25T07:07:28;100065.97;;;28.91;nan
41830;BME280;38614;43.472;23.936;2022-07-25T07:10:16;100070.22;;;29.26;nan
41830;BME280;38614;43.472;23.936;2022-07-25T07:13:09;100069.13;;;29.38;nan
41830;BME280;38614;43.472;23.936;2022-07-25T07:15:57;100076.44;;;29.54;nan
41830;BME280;38614;43.472;23.936;2022-07-25T07:18:45;100083.97;;;29.71;nan
41830;BME280;38614;43.472;23.936;2022-07-25T07:21:36;100075.47;;;29.92;nan
41830;BME280;38614;43.472;23.936;2022-07-25T07:24:23;100071.31;;;29.58;nan
41830;BME280;38614;43.472;23.936;2022-07-25T07:27:13;100091.31;;;30.07;nan
41830;BME280;38614;43.472;23.936;2022-07-25T07:30:10;100079.34;;;30.24;nan
41830;BME280;38614;43.472;23.936;2022-07-25T07:35:51;100032.06;;;29.97;nan
41830;BME280;38614;43.472;23.936;2022-07-25T07:38:38;100069.59;;;30.51;nan
41830;BME280;38614;43.472;23.936;2022-07-25T07:41:26;100038.69;;;30.44;nan
41830;BME280;38614;43.472;23.936;2022-07-25T07:47:01;100082.25;;;30.64;nan
41830;BME280;38614;43.472;23.936;2022-07-25T07:49:52;100087.72;;;30.88;nan
41830;BME280;38614;43.472;23.936;2022-07-25T07:52:40;100069.91;;;30.53;nan
41830;BME280;38614;43.472;23.936;2022-07-25T07:55:28;100020.63;;;30.52;nan
41830;BME280;38614;43.472;23.936;2022-07-25T08:01:38;100054.41;;;30.59;nan
41830;BME280;38614;43.472;23.936;2022-07-25T08:04:26;100070.84;;;31.11;nan
41830;BME280;38614;43.472;23.936;2022-07-25T08:14:21;100081.13;;;31.81;nan
41830;BME280;38614;43.472;23.936;2022-07-25T08:17:09;100056.00;;;31.90;nan
41830;BME280;38614;43.472;23.936;2022-07-25T08:19:58;100073.00;;;32.05;nan
41830;BME280;38614;43.472;23.936;2022-07-25T08:23:07;100072.22;;;32.04;nan
41830;BME280;38614;43.472;23.936;2022-07-25T08:25:57;100073.47;;;32.41;nan
41830;BME280;38614;43.472;23.936;2022-07-25T08:28:45;100057.34;;;32.38;nan
41830;BME280;38614;43.472;23.936;2022-07-25T08:31:38;100064.38;;;31.99;nan
41830;BME280;38614;43.472;23.936;2022-07-25T08:34:26;99991.16;;;31.70;nan
41830;BME280;38614;43.472;23.936;2022-07-25T08:41:25;100056.09;;;32.55;nan
41830;BME280;38614;43.472;23.936;2022-07-25T08:44:13;100063.13;;;32.49;nan
41830;BME280;38614;43.472;23.936;2022-07-25T08:47:36;100059.38;;;32.85;nan
41830;BME280;38614;43.472;23.936;2022-07-25T08:50:27;100035.78;;;32.48;nan
41830;BME280;38614;43.472;23.936;2022-07-25T08:53:19;100073.59;;;32.69;nan
41830;BME280;38614;43.472;23.936;2022-07-25T08:56:22;100069.84;;;33.11;nan
41830;BME280;38614;43.472;23.936;2022-07-25T09:02:13;100064.38;;;33.07;nan
41830;BME280;38614;43.472;23.936;2022-07-25T09:05:58;100033.13;;;32.98;nan
41830;BME280;38614;43.472;23.936;2022-07-25T09:13:26;99985.22;;;32.17;nan
41830;BME280;38614;43.472;23.936;2022-07-25T09:17:25;99997.66;;;32.68;nan
41830;BME280;38614;43.472;23.936;2022-07-25T09:21:21;100052.38;;;32.32;nan
41830;BME280;38614;43.472;23.936;2022-07-25T09:25:03;99974.13;;;31.82;nan
41830;BME280;38614;43.472;23.936;2022-07-25T09:33:18;99993.63;;;33.47;nan
41830;BME280;38614;43.472;23.936;2022-07-25T09:37:31;99963.94;;;33.44;nan
41830;BME280;38614;43.472;23.936;2022-07-25T09:40:28;99958.72;;;33.37;nan
41830;BME280;38614;43.472;23.936;2022-07-25T09:44:25;100037.34;;;33.48;nan
41830;BME280;38614;43.472;23.936;2022-07-25T09:51:29;99991.97;;;33.96;nan
41830;BME280;38614;43.472;23.936;2022-07-25T09:58:15;99995.75;;;35.26;nan
41830;BME280;38614;43.472;23.936;2022-07-25T10:02:14;99949.47;;;34.64;nan
41830;BME280;38614;43.472;23.936;2022-07-25T10:34:38;99971.09;;;35.12;nan
41830;BME280;38614;43.472;23.936;2022-07-25T10:42:45;99937.22;;;34.64;nan
41830;BME280;38614;43.472;23.936;2022-07-25T10:51:08;99913.31;;;34.85;nan
41830;BME280;38614;43.472;23.936;2022-07-25T11:06:49;99979.38;;;35.51;nan
41830;BME280;38614;43.472;23.936;2022-07-25T11:09:43;99958.50;;;35.75;nan
41830;BME280;38614;43.472;23.936;2022-07-25T11:21:18;99922.91;;;35.29;nan
41830;BME280;38614;43.472;23.936;2022-07-25T11:24:55;99923.69;;;35.54;nan
41830;BME280;38614;43.472;23.936;2022-07-25T11:29:24;99965.34;;;36.40;nan
41830;BME280;38614;43.472;23.936;2022-07-25T11:32:55;99898.34;;;36.20;nan
41830;BME280;38614;43.472;23.936;2022-07-25T11:37:16;99881.25;;;35.90;nan
41830;BME280;38614;43.472;23.936;2022-07-25T11:40:19;99952.41;;;36.28;nan
41830;BME280;38614;43.472;23.936;2022-07-25T11:43:19;99940.66;;;36.07;nan
41830;BME280;38614;43.472;23.936;2022-07-25T11:46:07;99936.69;;;35.85;nan
41830;BME280;38614;43.472;23.936;2022-07-25T11:49:03;99939.81;;;36.12;nan
41830;BME280;38614;43.472;23.936;2022-07-25T11:51:52;99926.34;;;36.20;nan
41830;BME280;38614;43.472;23.936;2022-07-25T11:54:49;99932.53;;;36.67;nan
41830;BME280;38614;43.472;23.936;2022-07-25T11:57:42;99932.34;;;36.78;nan
41830;BME280;38614;43.472;23.936;2022-07-25T12:06:28;99904.25;;;35.90;nan
41830;BME280;38614;43.472;23.936;2022-07-25T12:09:19;99851.00;;;35.84;nan
41830;BME280;38614;43.472;23.936;2022-07-25T12:12:07;99912.06;;;36.33;nan
41830;BME280;38614;43.472;23.936;2022-07-25T12:14:55;99915.56;;;36.45;nan
41830;BME280;38614;43.472;23.936;2022-07-25T12:17:43;99901.56;;;36.54;nan
41830;BME280;38614;43.472;23.936;2022-07-25T12:20:33;99901.63;;;36.68;nan
41830;BME280;38614;43.472;23.936;2022-07-25T12:23:21;99899.84;;;36.65;nan
41830;BME280;38614;43.472;23.936;2022-07-25T12:26:10;99891.81;;;36.58;nan
41830;BME280;38614;43.472;23.936;2022-07-25T12:28:59;99888.22;;;36.89;nan
41830;BME280;38614;43.472;23.936;2022-07-25T12:31:47;99899.34;;;37.12;nan
41830;BME280;38614;43.472;23.936;2022-07-25T12:40:16;99878.97;;;35.83;nan
41830;BME280;38614;43.472;23.936;2022-07-25T12:43:05;99897.50;;;35.82;nan
41830;BME280;38614;43.472;23.936;2022-07-25T12:45:53;99879.47;;;36.06;nan
41830;BME280;38614;43.472;23.936;2022-07-25T12:48:40;99892.94;;;36.17;nan
41830;BME280;38614;43.472;23.936;2022-07-25T12:51:28;99877.38;;;36.07;nan
41830;BME280;38614;43.472;23.936;2022-07-25T12:54:17;99854.41;;;35.39;nan
41830;BME280;38614;43.472;23.936;2022-07-25T12:57:09;99872.59;;;35.47;nan
41830;BME280;38614;43.472;23.936;2022-07-25T12:59:57;99831.84;;;34.64;nan
41830;BME280;38614;43.472;23.936;2022-07-25T13:02:49;99854.97;;;34.36;nan
41830;BME280;38614;43.472;23.936;2022-07-25T13:05:40;99856.63;;;34.15;nan
41830;BME280;38614;43.472;23.936;2022-07-25T13:08:28;99865.38;;;34.45;nan
41830;BME280;38614;43.472;23.936;2022-07-25T13:11:16;99854.34;;;34.84;nan
41830;BME280;38614;43.472;23.936;2022-07-25T13:14:04;99859.03;;;35.18;nan
41830;BME280;38614;43.472;23.936;2022-07-25T13:16:52;99869.56;;;35.09;nan
41830;BME280;38614;43.472;23.936;2022-07-25T13:19:40;99852.50;;;35.47;nan
41830;BME280;38614;43.472;23.936;2022-07-25T13:22:42;99812.19;;;35.28;nan
41830;BME280;38614;43.472;23.936;2022-07-25T13:26:07;99806.97;;;35.27;nan
41830;BME280;38614;43.472;23.936;2022-07-25T13:29:05;99783.34;;;35.15;nan
41830;BME280;38614;43.472;23.936;2022-07-25T13:32:46;99843.03;;;35.95;nan
41830;BME280;38614;43.472;23.936;2022-07-25T13:36:24;99755.59;;;35.48;nan
41830;BME280;38614;43.472;23.936;2022-07-25T13:40:34;99825.50;;;35.75;nan
41830;BME280;38614;43.472;23.936;2022-07-25T13:52:02;99778.78;;;35.25;nan
41830;BME280;38614;43.472;23.936;2022-07-25T13:55:46;99745.28;;;34.84;nan
41830;BME280;38614;43.472;23.936;2022-07-25T14:00:00;99752.16;;;34.10;nan
41830;BME280;38614;43.472;23.936;2022-07-25T14:08:31;99743.81;;;34.48;nan
41830;BME280;38614;43.472;23.936;2022-07-25T14:12:55;99777.38;;;35.13;nan
41830;BME280;38614;43.472;23.936;2022-07-25T14:24:50;99730.41;;;34.86;nan
41830;BME280;38614;43.472;23.936;2022-07-25T14:28:16;99739.91;;;34.75;nan
41830;BME280;38614;43.472;23.936;2022-07-25T14:31:26;99727.88;;;34.77;nan
41830;BME280;38614;43.472;23.936;2022-07-25T14:34:47;99751.78;;;34.91;nan
41830;BME280;38614;43.472;23.936;2022-07-25T14:38:29;99726.78;;;34.55;nan
41830;BME280;38614;43.472;23.936;2022-07-25T14:45:01;99802.13;;;34.92;nan
41830;BME280;38614;43.472;23.936;2022-07-25T14:47:59;99739.94;;;34.45;nan
41830;BME280;38614;43.472;23.936;2022-07-25T14:51:21;99760.97;;;34.53;nan
41830;BME280;38614;43.472;23.936;2022-07-25T14:54:57;99710.38;;;34.20;nan
41830;BME280;38614;43.472;23.936;2022-07-25T15:02:51;99715.31;;;33.84;nan
41830;BME280;38614;43.472;23.936;2022-07-25T15:05:42;99723.88;;;33.43;nan
41830;BME280;38614;43.472;23.936;2022-07-25T15:08:30;99785.41;;;33.78;nan
41830;BME280;38614;43.472;23.936;2022-07-25T15:11:19;99769.84;;;34.14;nan
41830;BME280;38614;43.472;23.936;2022-07-25T15:14:07;99741.78;;;34.07;nan
41830;BME280;38614;43.472;23.936;2022-07-25T15:17:20;99772.56;;;34.37;nan
41830;BME280;38614;43.472;23.936;2022-07-25T15:20:11;99745.03;;;34.22;nan
41830;BME280;38614;43.472;23.936;2022-07-25T15:23:03;99760.84;;;34.35;nan
41830;BME280;38614;43.472;23.936;2022-07-25T15:29:15;99764.97;;;34.45;nan
41830;BME280;38614;43.472;23.936;2022-07-25T15:32:06;99763.25;;;34.25;nan
41830;BME280;38614;43.472;23.936;2022-07-25T15:34:55;99724.44;;;33.88;nan
41830;BME280;38614;43.472;23.936;2022-07-25T15:37:43;99759.84;;;33.91;nan
41830;BME280;38614;43.472;23.936;2022-07-25T15:40:34;99756.53;;;33.76;nan
41830;BME280;38614;43.472;23.936;2022-07-25T15:43:22;99759.63;;;33.78;nan
41830;BME280;38614;43.472;23.936;2022-07-25T15:46:12;99757.75;;;33.91;nan
41830;BME280;38614;43.472;23.936;2022-07-25T15:49:20;99676.75;;;33.44;nan
41830;BME280;38614;43.472;23.936;2022-07-25T15:52:11;99724.44;;;33.83;nan
41830;BME280;38614;43.472;23.936;2022-07-25T15:57:53;99739.84;;;33.74;nan
41830;BME280;38614;43.472;23.936;2022-07-25T16:06:20;99756.88;;;33.61;nan
41830;BME280;38614;43.472;23.936;2022-07-25T16:09:10;99751.47;;;33.46;nan
41830;BME280;38614;43.472;23.936;2022-07-25T16:11:59;99741.34;;;33.34;nan
41830;BME280;38614;43.472;23.936;2022-07-25T16:17:35;99717.72;;;33.16;nan
41830;BME280;38614;43.472;23.936;2022-07-25T16:20:24;99750.00;;;33.17;nan
41830;BME280;38614;43.472;23.936;2022-07-25T16:23:14;99699.38;;;32.56;nan
41830;BME280;38614;43.472;23.936;2022-07-25T16:26:02;99759.66;;;33.03;nan
41830;BME280;38614;43.472;23.936;2022-07-25T16:28:53;99747.41;;;33.02;nan
41830;BME280;38614;43.472;23.936;2022-07-25T16:31:45;99732.38;;;32.79;nan
41830;BME280;38614;43.472;23.936;2022-07-25T16:34:33;99750.84;;;32.95;nan
41830;BME280;38614;43.472;23.936;2022-07-25T16:37:21;99750.03;;;33.00;nan
41830;BME280;38614;43.472;23.936;2022-07-25T16:40:11;99767.25;;;32.89;nan
41830;BME280;38614;43.472;23.936;2022-07-25T16:43:00;99752.91;;;32.72;nan
41830;BME280;38614;43.472;23.936;2022-07-25T16:45:48;99747.22;;;32.61;nan
41830;BME280;38614;43.472;23.936;2022-07-25T16:48:36;99747.19;;;32.67;nan
41830;BME280;38614;43.472;23.936;2022-07-25T16:51:24;99712.94;;;32.33;nan
41830;BME280;38614;43.472;23.936;2022-07-25T16:54:12;99741.78;;;32.41;nan
41830;BME280;38614;43.472;23.936;2022-07-25T16:57:00;99754.25;;;32.32;nan
41830;BME280;38614;43.472;23.936;2022-07-25T16:59:48;99749.00;;;32.19;nan
41830;BME280;38614;43.472;23.936;2022-07-25T17:02:36;99745.88;;;32.06;nan
41830;BME280;38614;43.472;23.936;2022-07-25T17:05:24;99745.84;;;31.89;nan
41830;BME280;38614;43.472;23.936;2022-07-25T17:08:11;99743.94;;;31.64;nan
41830;BME280;38614;43.472;23.936;2022-07-25T17:10:59;99744.72;;;31.59;nan
41830;BME280;38614;43.472;23.936;2022-07-25T17:13:47;99736.84;;;31.42;nan
41830;BME280;38614;43.472;23.936;2022-07-25T17:16:35;99738.03;;;31.19;nan
41830;BME280;38614;43.472;23.936;2022-07-25T17:19:23;99738.25;;;31.10;nan
41830;BME280;38614;43.472;23.936;2022-07-25T17:22:11;99722.06;;;30.90;nan
41830;BME280;38614;43.472;23.936;2022-07-25T17:24:59;99749.06;;;30.95;nan
41830;BME280;38614;43.472;23.936;2022-07-25T17:27:46;99749.31;;;30.91;nan
41830;BME280;38614;43.472;23.936;2022-07-25T17:30:34;99724.19;;;30.63;nan
41830;BME280;38614;43.472;23.936;2022-07-25T17:33:22;99749.38;;;30.65;nan
41830;BME280;38614;43.472;23.936;2022-07-25T17:36:10;99752.59;;;30.52;nan
41830;BME280;38614;43.472;23.936;2022-07-25T17:39:00;99755.19;;;30.50;nan
41830;BME280;38614;43.472;23.936;2022-07-25T17:41:48;99727.53;;;30.25;nan
41830;BME280;38614;43.472;23.936;2022-07-25T17:44:38;99745.44;;;30.31;nan
41830;BME280;38614;43.472;23.936;2022-07-25T17:47:25;99747.94;;;30.18;nan
41830;BME280;38614;43.472;23.936;2022-07-25T17:50:13;99748.13;;;30.08;nan
41830;BME280;38614;43.472;23.936;2022-07-25T17:53:03;99748.63;;;30.07;nan
41830;BME280;38614;43.472;23.936;2022-07-25T17:55:51;98843.81;;;24.01;nan
41830;BME280;38614;43.472;23.936;2022-07-25T17:58:38;99744.50;;;29.88;nan
41830;BME280;38614;43.472;23.936;2022-07-25T18:01:26;99743.81;;;29.72;nan
41830;BME280;38614;43.472;23.936;2022-07-25T18:04:14;99762.34;;;29.62;nan
41830;BME280;38614;43.472;23.936;2022-07-25T18:09:50;99753.22;;;29.38;nan
41830;BME280;38614;43.472;23.936;2022-07-25T18:12:39;99749.94;;;29.24;nan
41830;BME280;38614;43.472;23.936;2022-07-25T18:15:27;99754.69;;;29.13;nan
41830;BME280;38614;43.472;23.936;2022-07-25T18:18:15;99749.22;;;29.09;nan
41830;BME280;38614;43.472;23.936;2022-07-25T18:21:06;99761.88;;;29.08;nan
41830;BME280;38614;43.472;23.936;2022-07-25T18:35:27;99775.81;;;28.56;nan
41830;BME280;38614;43.472;23.936;2022-07-25T18:38:15;99756.63;;;28.36;nan
41830;BME280;38614;43.472;23.936;2022-07-25T18:41:03;99772.09;;;28.35;nan
41830;BME280;38614;43.472;23.936;2022-07-25T18:44:10;99740.53;;;28.04;nan
41830;BME280;38614;43.472;23.936;2022-07-25T18:49:49;99770.72;;;28.01;nan
41830;BME280;38614;43.472;23.936;2022-07-25T18:52:37;99780.69;;;27.97;nan
41830;BME280;38614;43.472;23.936;2022-07-25T18:55:25;99774.50;;;27.83;nan
41830;BME280;38614;43.472;23.936;2022-07-25T19:01:06;99777.78;;;27.67;nan
41830;BME280;38614;43.472;23.936;2022-07-25T19:03:58;99773.53;;;27.63;nan
41830;BME280;38614;43.472;23.936;2022-07-25T19:06:46;99768.38;;;27.37;nan
41830;BME280;38614;43.472;23.936;2022-07-25T19:12:24;99790.88;;;27.41;nan
41830;BME280;38614;43.472;23.936;2022-07-25T19:20:51;99764.41;;;26.87;nan
41830;BME280;38614;43.472;23.936;2022-07-25T19:23:39;99780.47;;;26.90;nan
41830;BME280;38614;43.472;23.936;2022-07-25T19:29:16;99798.38;;;26.96;nan
41830;BME280;38614;43.472;23.936;2022-07-25T19:34:53;99262.81;;;23.32;nan
41830;BME280;38614;43.472;23.936;2022-07-25T19:37:41;99815.81;;;26.70;nan
41830;BME280;38614;43.472;23.936;2022-07-25T19:43:28;99817.88;;;26.61;nan